TAF KIFP
KIFP 072334Z 0800/0824 01011KT P6SM SCT090 BKN110 FM080300 02010KT P6SM BKN090 FM081500 VRB04KT P6SM SCT100 FM082100 19007KT P6SM FEW120 SCT250=
METAR KIFP
WC KIFP
WS KIFP
WV KIFP